Time;durP1;ratioP1;P1;durP2;ratioP2;P2;SDS_P1;SDS_P2;PMS_P1;PMS_P2;Temp;Humidity;BMP_temperature;BMP_pressure;BME280_temperature;BME280_humidity;BME280_pressure;Samples;Min_cycle;Max_cycle;Signal;HPM_P1;HPM_P2
2023/11/27 00:00:25;;;;;;;27.40;13.73;;;;;;;5.07;100.00;100886.13;6082196;19;20003;-72
2023/11/27 00:02:43;;;;;;;27.00;14.73;;;;;;;5.00;100.00;100880.19;6084425;19;20018;-72
2023/11/27 00:04:48;;;;;;;35.10;15.25;;;;;;;4.97;100.00;100882.81;6085790;19;20018;-72
2023/11/27 00:06:56;;;;;;;28.85;14.85;;;;;;;4.99;100.00;100869.78;6082356;19;20006;-72
2023/11/27 00:09:01;;;;;;;38.08;14.68;;;;;;;4.96;100.00;100867.25;6083823;19;20011;-72
2023/11/27 00:11:06;;;;;;;30.80;16.65;;;;;;;4.92;100.00;100860.34;6087367;19;20014;-72
2023/11/27 00:13:11;;;;;;;37.30;14.60;;;;;;;4.99;100.00;100859.38;6086055;19;20010;-72
2023/11/27 00:15:16;;;;;;;27.83;13.65;;;;;;;4.96;100.00;100854.22;6087298;19;20102;-73
2023/11/27 00:17:21;;;;;;;40.47;14.32;;;;;;;4.95;100.00;100850.75;6083184;19;20227;-72
2023/11/27 00:19:26;;;;;;;24.90;11.68;;;;;;;4.99;100.00;100849.81;6085304;19;20060;-72
2023/11/27 00:21:31;;;;;;;30.73;14.73;;;;;;;4.93;100.00;100836.06;6084935;19;20007;-72
2023/11/27 00:23:40;;;;;;;31.17;13.70;;;;;;;4.90;100.00;100831.75;6083295;19;20039;-72
2023/11/27 00:25:42;;;;;;;27.88;12.38;;;;;;;4.90;100.00;100831.75;6081652;19;20024;-71
2023/11/27 00:27:46;;;;;;;27.98;13.38;;;;;;;4.90;100.00;100825.66;6085238;19;20470;-70
2023/11/27 00:29:51;;;;;;;29.75;13.88;;;;;;;4.94;100.00;100824.75;6085316;19;20685;-70
2023/11/27 00:31:56;;;;;;;27.13;14.10;;;;;;;4.90;100.00;100816.13;6082880;19;20085;-71
2023/11/27 00:34:01;;;;;;;20.67;11.55;;;;;;;4.92;100.00;100810.88;6084831;19;20038;-71
2023/11/27 00:36:04;;;;;;;22.83;11.93;;;;;;;4.89;100.00;100803.13;6082088;19;20074;-71
2023/11/27 00:38:15;;;;;;;30.35;13.10;;;;;;;4.91;100.00;100790.94;6084644;19;20010;-72
2023/11/27 00:40:22;;;;;;;24.77;11.95;;;;;;;4.92;100.00;100787.44;6083995;19;20037;-71
2023/11/27 00:42:27;;;;;;;25.08;12.48;;;;;;;4.91;100.00;100785.75;6085207;19;20372;-73
2023/11/27 00:44:32;;;;;;;24.67;11.75;;;;;;;4.90;100.00;100789.22;6083166;19;20446;-72
2023/11/27 00:46:39;;;;;;;20.77;9.82;;;;;;;4.92;100.00;100777.03;6085336;19;20007;-72
2023/11/27 00:48:43;;;;;;;20.95;11.93;;;;;;;4.88;100.00;100770.19;6083789;19;20321;-71
2023/11/27 00:50:48;;;;;;;21.33;10.50;;;;;;;4.84;100.00;100770.25;6088096;19;20035;-71
2023/11/27 00:52:53;;;;;;;17.33;10.43;;;;;;;4.90;100.00;100765.78;6079297;19;20483;-72
2023/11/27 00:54:58;;;;;;;28.27;12.40;;;;;;;4.86;100.00;100751.97;6082859;19;20006;-72
2023/11/27 00:57:06;;;;;;;29.90;11.73;;;;;;;4.88;100.00;100752.81;6075920;19;20340;-70
2023/11/27 00:59:11;;;;;;;25.02;12.52;;;;;;;4.87;100.00;100750.22;6087681;19;20043;-70
2023/11/27 01:01:16;;;;;;;23.45;11.82;;;;;;;4.88;100.00;100745.00;6085925;19;20014;-71
2023/11/27 01:03:21;;;;;;;17.65;10.55;;;;;;;4.93;100.00;100745.75;6085919;19;20006;-71
2023/11/27 01:05:28;;;;;;;27.67;12.30;;;;;;;4.90;100.00;100735.41;6083156;19;20018;-71
2023/11/27 01:07:33;;;;;;;23.52;11.02;;;;;;;4.89;100.00;100732.81;6083340;19;20007;-71
2023/11/27 01:09:39;;;;;;;23.88;11.38;;;;;;;4.87;100.00;100734.59;6086002;19;20242;-72
2023/11/27 01:11:44;;;;;;;26.30;11.32;;;;;;;4.88;100.00;100723.31;6081587;19;20011;-71
2023/11/27 01:13:52;;;;;;;19.60;9.93;;;;;;;4.88;100.00;100718.09;6086370;19;20014;-71
2023/11/27 01:15:59;;;;;;;27.48;12.25;;;;;;;4.90;100.00;100721.50;6084563;19;20028;-71
2023/11/27 01:18:05;;;;;;;28.52;12.32;;;;;;;4.84;100.00;100712.06;6084325;19;20077;-71
2023/11/27 01:20:11;;;;;;;23.88;11.20;;;;;;;4.82;100.00;100708.66;6084071;19;20003;-72
2023/11/27 01:22:17;;;;;;;23.77;11.63;;;;;;;4.80;100.00;100700.88;6080501;19;20097;-71
2023/11/27 01:24:23;;;;;;;23.00;10.23;;;;;;;4.84;100.00;100697.34;6084793;19;20010;-71
2023/11/27 01:26:30;;;;;;;22.05;12.15;;;;;;;4.79;100.00;100693.97;6086301;19;20450;-72
2023/11/27 01:28:36;;;;;;;19.10;10.27;;;;;;;4.82;100.00;100693.03;6087293;19;20010;-73
2023/11/27 01:30:43;;;;;;;19.42;8.68;;;;;;;4.82;100.00;100688.69;6084229;19;20078;-73
2023/11/27 01:32:48;;;;;;;19.92;11.40;;;;;;;4.76;100.00;100683.56;6086186;19;20513;-73
2023/11/27 01:34:55;;;;;;;19.38;9.82;;;;;;;4.76;100.00;100675.78;6083084;19;20039;-73
2023/11/27 01:37:00;;;;;;;21.27;11.75;;;;;;;4.79;100.00;100680.94;6087275;19;20017;-73
2023/11/27 01:39:06;;;;;;;20.35;11.75;;;;;;;4.78;100.00;100666.19;6081914;19;20002;-73
2023/11/27 01:41:11;;;;;;;25.23;12.45;;;;;;;4.75;100.00;100657.59;6086901;19;20010;-73
2023/11/27 01:43:14;;;;;;;23.42;10.50;;;;;;;4.71;100.00;100661.97;6086516;19;20089;-73
2023/11/27 01:45:19;;;;;;;22.27;11.10;;;;;;;4.74;100.00;100656.75;6085512;19;20040;-72
2023/11/27 01:47:24;;;;;;;22.38;10.40;;;;;;;4.74;100.00;100659.34;6085163;19;20007;-74
2023/11/27 01:49:29;;;;;;;21.30;9.75;;;;;;;4.77;100.00;100641.06;6081177;19;20145;-73
2023/11/27 01:51:32;;;;;;;18.95;10.38;;;;;;;4.76;100.00;100639.31;6086498;19;20015;-73
2023/11/27 01:53:37;;;;;;;18.42;9.80;;;;;;;4.75;100.00;100624.59;6079770;19;20039;-72
2023/11/27 01:55:42;;;;;;;21.55;9.40;;;;;;;4.72;100.00;100632.47;6081799;19;20131;-74
2023/11/27 01:57:47;;;;;;;21.05;9.75;;;;;;;4.74;100.00;100619.41;6082643;19;20017;-74
2023/11/27 01:59:56;;;;;;;22.05;11.18;;;;;;;4.72;100.00;100614.25;6084550;19;20340;-72
2023/11/27 02:02:01;;;;;;;24.75;9.77;;;;;;;4.71;100.00;100607.31;6075616;19;20015;-72
2023/11/27 02:04:09;;;;;;;19.48;9.88;;;;;;;4.72;100.00;100598.66;6081346;19;20002;-72
2023/11/27 02:06:15;;;;;;;17.50;10.60;;;;;;;4.74;100.00;100602.09;6084654;19;20110;-72
2023/11/27 02:08:20;;;;;;;14.27;6.72;;;;;;;4.73;100.00;100600.34;6082064;19;20042;-72
2023/11/27 02:10:22;;;;;;;14.90;7.85;;;;;;;4.68;100.00;100590.91;6082353;19;20038;-72
2023/11/27 02:12:27;;;;;;;20.90;10.07;;;;;;;4.66;100.00;100592.69;6084059;19;20056;-71
2023/11/27 02:14:33;;;;;;;12.70;6.47;;;;;;;4.70;100.00;100578.75;6085057;19;20014;-71
2023/11/27 02:16:39;;;;;;;18.75;8.82;;;;;;;4.70;100.00;100595.22;6082150;19;20007;-72
2023/11/27 02:18:45;;;;;;;15.85;9.00;;;;;;;4.68;100.00;100583.97;6082404;19;20039;-72
2023/11/27 02:20:49;;;;;;;18.27;9.48;;;;;;;4.72;100.00;100580.44;6080859;19;20502;-71
2023/11/27 02:22:54;;;;;;;17.90;9.13;;;;;;;4.68;100.00;100576.16;6082691;19;19999;-72
2023/11/27 02:25:01;;;;;;;15.95;8.50;;;;;;;4.70;100.00;100574.38;6085462;19;20071;-71
2023/11/27 02:27:07;;;;;;;14.25;9.43;;;;;;;4.66;100.00;100567.53;6085514;19;20007;-72
2023/11/27 02:29:12;;;;;;;24.77;11.10;;;;;;;4.64;100.00;100558.06;6081749;19;20090;-73
2023/11/27 02:31:16;;;;;;;17.25;8.57;;;;;;;4.68;100.00;100550.13;6085430;19;20020;-73
2023/11/27 02:33:21;;;;;;;16.33;8.43;;;;;;;4.68;100.00;100546.69;6081475;19;20010;-73
2023/11/27 02:35:26;;;;;;;15.95;7.97;;;;;;;4.67;100.00;100545.81;6084538;19;20031;-71
2023/11/27 02:37:31;;;;;;;14.38;7.35;;;;;;;4.69;100.00;100541.44;6082344;19;20010;-72
2023/11/27 02:39:36;;;;;;;19.88;8.23;;;;;;;4.68;100.00;100537.13;6085071;19;20006;-72
2023/11/27 02:41:43;;;;;;;12.32;7.30;;;;;;;4.66;100.00;100525.91;6083923;19;20006;-72
2023/11/27 02:43:48;;;;;;;15.02;8.02;;;;;;;4.68;100.00;100521.50;6087584;19;20625;-72
2023/11/27 02:45:53;;;;;;;18.48;8.13;;;;;;;4.66;100.00;100528.50;6084609;19;20070;-72
2023/11/27 02:47:58;;;;;;;18.38;9.05;;;;;;;4.63;100.00;100510.31;6080146;19;20007;-74
2023/11/27 02:50:04;;;;;;;17.55;9.57;;;;;;;4.62;100.00;100506.88;6083710;19;20088;-72
2023/11/27 02:52:10;;;;;;;12.20;6.20;;;;;;;4.66;100.00;100505.09;6081021;19;20010;-72
2023/11/27 02:54:15;;;;;;;14.98;7.15;;;;;;;4.62;100.00;100496.47;6083007;19;20050;-72
2023/11/27 02:56:20;;;;;;;14.27;7.30;;;;;;;4.60;100.00;100490.44;6085142;19;20035;-72
2023/11/27 02:58:27;;;;;;;14.30;7.15;;;;;;;4.65;100.00;100486.88;6081705;19;20011;-71
2023/11/27 03:00:32;;;;;;;14.98;8.73;;;;;;;4.65;100.00;100479.94;6083065;19;20018;-71
2023/11/27 03:02:37;;;;;;;15.60;8.65;;;;;;;4.61;100.00;100486.09;6085309;19;20474;-72
2023/11/27 03:04:42;;;;;;;14.80;7.43;;;;;;;4.57;100.00;100494.84;6090844;19;20011;-72
2023/11/27 03:06:47;;;;;;;16.25;7.38;;;;;;;4.60;100.00;100481.78;6089978;19;20038;-72
2023/11/27 03:08:52;;;;;;;15.57;8.57;;;;;;;4.58;100.00;100480.94;6088101;19;20010;-71
2023/11/27 03:10:54;;;;;;;16.98;8.02;;;;;;;4.56;100.00;100467.13;6088773;19;20027;-72
2023/11/27 03:12:59;;;;;;;19.52;7.43;;;;;;;4.58;100.00;100470.53;6079990;19;20017;-73
2023/11/27 03:15:08;;;;;;;21.95;8.77;;;;;;;4.56;100.00;100461.94;6087819;19;20011;-73
2023/11/27 03:17:10;;;;;;;18.92;8.75;;;;;;;4.53;100.00;100451.56;6080855;19;20003;-72
2023/11/27 03:19:15;;;;;;;18.13;9.10;;;;;;;4.57;100.00;100455.81;6086648;19;20014;-72
2023/11/27 03:21:23;;;;;;;18.67;9.32;;;;;;;4.55;100.00;100455.84;6088186;19;20359;-71
2023/11/27 03:23:27;;;;;;;15.43;9.02;;;;;;;4.56;100.00;100446.31;6086931;19;20011;-73
2023/11/27 03:25:33;;;;;;;14.70;8.88;;;;;;;4.54;100.00;100440.28;6086988;19;20018;-72
2023/11/27 03:27:35;;;;;;;19.85;9.32;;;;;;;4.53;100.00;100441.16;6086918;19;20090;-72
2023/11/27 03:29:40;;;;;;;14.18;7.70;;;;;;;4.58;100.00;100434.09;6084299;19;20529;-73
2023/11/27 03:31:48;;;;;;;13.45;9.07;;;;;;;4.56;100.00;100422.91;6083721;19;20039;-70
2023/11/27 03:33:53;;;;;;;22.17;11.35;;;;;;;4.51;100.00;100423.00;6085242;19;20027;-73
2023/11/27 03:35:58;;;;;;;21.90;10.93;;;;;;;4.54;100.00;100412.50;6085987;19;20003;-73
2023/11/27 03:38:03;;;;;;;22.15;9.93;;;;;;;4.59;100.00;100415.88;6080480;19;20503;-72
2023/11/27 03:40:08;;;;;;;20.55;10.10;;;;;;;4.53;100.00;100415.13;6084405;19;20502;-73
2023/11/27 03:42:13;;;;;;;19.05;8.88;;;;;;;4.60;100.00;100406.31;6089216;19;20034;-71
2023/11/27 03:44:18;;;;;;;22.75;10.90;;;;;;;4.54;100.00;100396.91;6087145;19;20337;-72
2023/11/27 03:46:23;;;;;;;20.95;9.65;;;;;;;4.54;100.00;100396.03;6087227;19;20010;-72
2023/11/27 03:48:30;;;;;;;23.60;11.93;;;;;;;4.54;100.00;100389.09;6088223;19;20006;-72
2023/11/27 03:50:35;;;;;;;18.08;10.57;;;;;;;4.51;100.00;100391.78;6088351;19;20023;-72
2023/11/27 03:52:41;;;;;;;23.00;9.93;;;;;;;4.56;100.00;100389.06;6085091;19;20006;-75
2023/11/27 03:54:43;;;;;;;15.40;9.00;;;;;;;4.58;100.00;100382.06;6088142;19;20006;-72
2023/11/27 03:56:48;;;;;;;22.85;10.90;;;;;;;4.53;100.00;100382.19;6088231;19;20368;-72
2023/11/27 03:58:54;;;;;;;23.20;11.50;;;;;;;4.54;100.00;100370.88;6087508;19;20006;-72
2023/11/27 04:00:57;;;;;;;22.75;10.38;;;;;;;4.53;100.00;100365.69;6087226;19;20011;-72
2023/11/27 04:03:02;;;;;;;19.00;9.68;;;;;;;4.49;100.00;100361.47;6080838;19;20006;-73
2023/11/27 04:05:10;;;;;;;20.73;9.98;;;;;;;4.54;100.00;100362.22;6083245;19;20018;-71
2023/11/27 04:07:12;;;;;;;17.58;9.85;;;;;;;4.47;100.00;100353.69;6083466;19;20038;-72
2023/11/27 04:09:20;;;;;;;17.50;8.70;;;;;;;4.47;100.00;100351.09;6089548;19;20205;-71
2023/11/27 04:11:27;;;;;;;14.90;8.98;;;;;;;4.50;100.00;100348.44;6088850;19;20427;-71
2023/11/27 04:13:29;;;;;;;18.55;8.63;;;;;;;4.51;100.00;100338.88;6085910;19;20021;-71
2023/11/27 04:15:34;;;;;;;12.68;7.53;;;;;;;4.50;100.00;100343.25;6086468;19;20014;-73
2023/11/27 04:17:39;;;;;;;15.43;8.43;;;;;;;4.50;100.00;100338.03;6087026;19;20050;-71
2023/11/27 04:19:44;;;;;;;16.52;8.85;;;;;;;4.43;100.00;100330.41;6082073;19;20025;-71
2023/11/27 04:21:51;;;;;;;17.42;8.60;;;;;;;4.43;100.00;100325.19;6088993;19;20059;-71
2023/11/27 04:23:56;;;;;;;14.80;7.32;;;;;;;4.45;100.00;100324.28;6087475;19;20613;-71
2023/11/27 04:26:01;;;;;;;13.68;7.13;;;;;;;4.36;100.00;100317.53;6085202;19;20455;-75
2023/11/27 04:28:06;;;;;;;17.33;8.50;;;;;;;4.36;100.00;100311.47;6085889;19;20014;-72
2023/11/27 04:30:12;;;;;;;17.40;9.55;;;;;;;4.32;100.00;100310.69;6085201;19;20003;-71
2023/11/27 04:32:17;;;;;;;19.27;8.88;;;;;;;4.32;100.00;100300.28;6087671;19;20003;-72
2023/11/27 04:34:22;;;;;;;15.13;8.70;;;;;;;4.33;100.00;100299.38;6086278;19;20372;-72
2023/11/27 04:36:27;;;;;;;20.42;9.80;;;;;;;4.31;100.00;100290.75;6085429;19;20010;-72
2023/11/27 04:38:31;;;;;;;13.25;6.85;;;;;;;4.26;100.00;100290.00;6084515;19;20010;-72
2023/11/27 04:40:37;;;;;;;22.95;10.48;;;;;;;4.26;100.00;100292.59;6086543;19;20011;-72
2023/11/27 04:42:42;;;;;;;16.02;8.63;;;;;;;4.24;100.00;100284.00;6086436;19;20652;-73
2023/11/27 04:44:47;;;;;;;12.10;7.55;;;;;;;4.18;100.00;100273.72;6088087;19;20656;-73
2023/11/27 04:46:50;;;;;;;17.10;8.00;;;;;;;4.23;100.00;100268.44;6085673;19;20105;-73
2023/11/27 04:48:55;;;;;;;17.02;8.27;;;;;;;4.18;100.00;100263.34;6085750;19;20656;-73
2023/11/27 04:51:00;;;;;;;17.15;8.45;;;;;;;4.17;100.00;100265.09;6084629;19;20017;-73
2023/11/27 04:53:05;;;;;;;16.60;8.68;;;;;;;4.16;100.00;100259.91;6079942;19;20046;-72
2023/11/27 04:55:13;;;;;;;19.02;8.07;;;;;;;4.19;100.00;100254.66;6086435;19;20069;-72
2023/11/27 04:57:15;;;;;;;15.85;9.10;;;;;;;4.14;100.00;100256.50;6082778;19;20006;-71
2023/11/27 04:59:20;;;;;;;14.13;8.32;;;;;;;4.21;100.00;100249.41;6085914;19;20006;-71
2023/11/27 05:01:25;;;;;;;16.42;8.63;;;;;;;4.15;100.00;100237.41;6080344;19;20010;-72
2023/11/27 05:03:30;;;;;;;11.00;6.60;;;;;;;4.21;100.00;100236.41;6084929;19;20039;-71
2023/11/27 05:05:36;;;;;;;16.38;8.05;;;;;;;4.15;100.00;100237.41;6085265;19;20900;-71
2023/11/27 05:07:41;;;;;;;19.13;9.18;;;;;;;4.09;100.00;100237.56;6087430;19;20010;-70
2023/11/27 05:09:46;;;;;;;17.10;8.40;;;;;;;4.09;100.00;100228.00;6087815;19;20017;-72
2023/11/27 05:11:53;;;;;;;17.40;8.85;;;;;;;4.08;100.00;100230.63;6087447;19;20021;-72
2023/11/27 05:13:58;;;;;;;13.98;8.18;;;;;;;4.07;100.00;100218.53;6088097;19;20027;-73
2023/11/27 05:16:03;;;;;;;17.58;9.63;;;;;;;4.05;100.00;100215.97;6087248;19;20107;-72
2023/11/27 05:18:06;;;;;;;16.85;8.73;;;;;;;4.06;100.00;100212.50;6088500;19;20079;-74
2023/11/27 05:20:13;;;;;;;13.55;7.40;;;;;;;4.06;100.00;100211.63;6087539;19;20038;-72
2023/11/27 05:22:15;;;;;;;16.77;9.75;;;;;;;3.99;100.00;100207.47;6085499;19;20010;-72
2023/11/27 05:24:20;;;;;;;19.17;9.00;;;;;;;4.01;100.00;100203.09;6085472;19;20003;-72
2023/11/27 05:26:24;;;;;;;12.10;6.43;;;;;;;4.01;100.00;100203.09;6088222;19;20329;-72
2023/11/27 05:28:33;;;;;;;15.57;7.45;;;;;;;4.02;100.00;100187.44;6078999;19;20020;-73
2023/11/27 05:30:40;;;;;;;15.15;8.77;;;;;;;4.02;100.00;100190.03;6082575;19;20002;-71
2023/11/27 05:32:45;;;;;;;16.90;8.13;;;;;;;4.00;100.00;100186.63;6084510;19;20039;-72
2023/11/27 05:34:50;;;;;;;15.73;7.57;;;;;;;4.04;100.00;100179.63;6083947;19;20018;-72
2023/11/27 05:36:55;;;;;;;13.93;7.20;;;;;;;4.03;100.00;100172.69;6086216;19;20067;-71
2023/11/27 05:38:59;;;;;;;17.88;8.55;;;;;;;3.99;100.00;100171.06;6083340;19;20007;-72
2023/11/27 05:41:07;;;;;;;16.10;8.02;;;;;;;3.99;100.00;100176.28;6083615;19;20382;-72
2023/11/27 05:43:12;;;;;;;14.50;8.02;;;;;;;3.97;100.00;100168.50;6084026;19;20007;-72
2023/11/27 05:45:20;;;;;;;20.00;9.15;;;;;;;3.98;100.00;100162.44;6086034;19;20031;-73
2023/11/27 05:47:22;;;;;;;19.23;8.93;;;;;;;4.00;100.00;100163.22;6078079;19;20041;-72
2023/11/27 05:49:30;;;;;;;15.32;7.90;;;;;;;3.99;100.00;100165.88;6085755;19;20022;-73
2023/11/27 05:51:39;;;;;;;14.95;8.55;;;;;;;4.04;100.00;100156.22;6084088;19;20007;-73
2023/11/27 05:53:44;;;;;;;15.88;8.55;;;;;;;4.05;100.00;100152.72;6077306;19;20115;-73
2023/11/27 05:55:49;;;;;;;17.88;9.35;;;;;;;4.02;100.00;100152.78;6084058;19;20013;-71
2023/11/27 05:57:54;;;;;;;15.82;7.57;;;;;;;4.00;100.00;100146.78;6084420;19;20024;-73
2023/11/27 05:59:57;;;;;;;15.63;9.48;;;;;;;3.96;100.00;100136.47;6083277;19;20027;-73
2023/11/27 06:02:04;;;;;;;17.83;9.27;;;;;;;3.96;100.00;100136.47;6087643;19;20018;-72
2023/11/27 06:04:10;;;;;;;15.18;7.90;;;;;;;3.96;100.00;100133.84;6085937;19;20015;-73
2023/11/27 06:06:13;;;;;;;12.75;7.10;;;;;;;4.04;100.00;100125.03;6085029;19;20038;-72
2023/11/27 06:08:17;;;;;;;18.10;9.07;;;;;;;3.97;100.00;100124.31;6087898;19;20015;-73
2023/11/27 06:10:22;;;;;;;16.17;8.38;;;;;;;4.00;100.00;100128.56;6087638;19;19999;-73
2023/11/27 06:12:27;;;;;;;15.50;9.30;;;;;;;3.98;100.00;100120.84;6080968;19;20006;-72
2023/11/27 06:14:33;;;;;;;16.75;9.05;;;;;;;4.02;100.00;100116.41;6085408;19;20010;-73
2023/11/27 06:16:37;;;;;;;19.55;8.55;;;;;;;4.03;100.00;100118.09;6084960;19;20011;-73
2023/11/27 06:18:42;;;;;;;15.50;8.55;;;;;;;4.08;100.00;100104.13;6084330;19;20007;-73
2023/11/27 06:20:48;;;;;;;16.08;8.77;;;;;;;4.04;100.00;100096.41;6082316;19;20073;-73
2023/11/27 06:22:57;;;;;;;18.98;9.90;;;;;;;4.02;100.00;100085.19;6086266;19;20007;-73
2023/11/27 06:25:02;;;;;;;17.83;8.10;;;;;;;4.10;100.00;100072.84;6084698;19;20014;-73
2023/11/27 06:27:07;;;;;;;15.07;8.07;;;;;;;4.02;100.00;100070.44;6084321;19;20020;-73
2023/11/27 06:29:09;;;;;;;16.02;8.18;;;;;;;4.04;100.00;100070.44;6080663;19;20014;-73
2023/11/27 06:31:15;;;;;;;20.17;8.77;;;;;;;4.07;100.00;100065.13;6080577;19;20034;-73
2023/11/27 06:33:21;;;;;;;17.33;9.70;;;;;;;4.08;100.00;100059.03;6081112;19;20035;-73
2023/11/27 06:35:28;;;;;;;19.45;9.73;;;;;;;4.09;100.00;100058.16;6083783;19;20478;-73
2023/11/27 06:37:33;;;;;;;17.92;9.57;;;;;;;4.12;100.00;100055.47;6085855;19;20082;-72
2023/11/27 06:39:38;;;;;;;18.38;8.80;;;;;;;4.11;100.00;100045.97;6086387;19;20061;-72
2023/11/27 06:41:43;;;;;;;13.95;7.68;;;;;;;4.13;100.00;100037.25;6085440;19;20032;-73
2023/11/27 06:43:48;;;;;;;20.92;10.13;;;;;;;4.12;100.00;100035.53;6086111;19;20089;-73
2023/11/27 06:45:55;;;;;;;19.00;10.13;;;;;;;4.15;100.00;100032.84;6084025;19;20014;-73
2023/11/27 06:48:00;;;;;;;15.23;8.23;;;;;;;4.19;100.00;100033.63;6079290;19;20050;-72
2023/11/27 06:50:06;;;;;;;18.63;10.27;;;;;;;4.11;100.00;100022.59;6088020;19;20478;-73
2023/11/27 06:52:14;;;;;;;18.02;9.32;;;;;;;4.17;100.00;100025.00;6089962;19;20479;-73
2023/11/27 06:54:19;;;;;;;15.00;9.35;;;;;;;4.12;100.00;100017.31;6088854;19;20405;-73
2023/11/27 06:56:21;;;;;;;15.25;8.20;;;;;;;4.16;100.00;100015.47;6088301;19;20723;-73
2023/11/27 06:58:26;;;;;;;21.75;9.88;;;;;;;4.26;100.00;100016.09;6087818;19;20040;-73
2023/11/27 07:00:31;;;;;;;17.67;9.70;;;;;;;4.25;100.00;100010.03;6087695;19;20015;-73
2023/11/27 07:02:36;;;;;;;18.92;9.32;;;;;;;4.26;100.00;100005.69;6088833;19;20013;-73
2023/11/27 07:04:42;;;;;;;19.30;9.77;;;;;;;4.22;100.00;100010.13;6088424;19;20007;-71
2023/11/27 07:06:46;;;;;;;13.95;7.13;;;;;;;4.24;100.00;100000.53;6086401;19;20563;-72
2023/11/27 07:08:54;;;;;;;19.75;10.45;;;;;;;4.24;100.00;100003.16;6088716;19;20023;-72
2023/11/27 07:10:59;;;;;;;19.40;9.00;;;;;;;4.27;100.00;99997.84;6086728;19;20116;-72
2023/11/27 07:13:04;;;;;;;18.02;10.02;;;;;;;4.35;100.00;99997.63;6085543;19;20014;-73
2023/11/27 07:15:09;;;;;;;20.27;10.05;;;;;;;4.39;100.00;99992.28;6086133;19;20542;-72
2023/11/27 07:17:15;;;;;;;20.83;10.13;;;;;;;4.35;100.00;99990.69;6086606;19;20007;-72
2023/11/27 07:19:18;;;;;;;16.73;9.57;;;;;;;4.42;100.00;99980.94;6088780;19;20020;-71
2023/11/27 07:21:24;;;;;;;20.05;9.82;;;;;;;4.43;100.00;99977.47;6091009;19;20027;-71
2023/11/27 07:23:29;;;;;;;17.25;8.70;;;;;;;4.44;100.00;99971.34;6086822;19;20695;-72
2023/11/27 07:25:37;;;;;;;18.20;9.48;;;;;;;4.51;100.00;99975.47;6087363;19;20043;-73
2023/11/27 07:27:44;;;;;;;19.63;11.18;;;;;;;4.51;100.00;99964.22;6081213;19;20475;-70
2023/11/27 07:29:51;;;;;;;19.83;9.88;;;;;;;4.53;100.00;99965.00;6088001;19;20008;-72
2023/11/27 07:31:55;;;;;;;18.23;10.88;;;;;;;4.49;100.00;99956.44;6085430;19;20006;-71
2023/11/27 07:34:01;;;;;;;20.42;10.88;;;;;;;4.48;100.00;99967.78;6087282;19;20002;-72
2023/11/27 07:36:07;;;;;;;18.50;10.18;;;;;;;4.53;100.00;99959.81;6082510;19;20099;-71
2023/11/27 07:38:12;;;;;;;20.55;9.40;;;;;;;4.57;100.00;99951.03;6085045;19;20003;-71
2023/11/27 07:40:18;;;;;;;19.00;10.00;;;;;;;4.58;100.00;99945.78;6085836;19;20018;-71
2023/11/27 07:42:26;;;;;;;21.10;11.73;;;;;;;4.63;100.00;99945.63;6083844;19;20103;-71
2023/11/27 07:44:30;;;;;;;21.67;9.90;;;;;;;4.62;100.00;99942.19;6088368;19;20086;-70
2023/11/27 07:46:36;;;;;;;26.70;10.90;;;;;;;4.57;100.00;99933.66;6086149;19;20470;-71
2023/11/27 07:48:41;;;;;;;23.63;10.80;;;;;;;4.56;100.00;99926.75;6085599;19;20002;-73
2023/11/27 07:50:47;;;;;;;22.83;10.43;;;;;;;4.61;100.00;99924.03;6084922;19;20031;-72
2023/11/27 07:52:51;;;;;;;19.73;10.20;;;;;;;4.67;100.00;99923.84;6085003;19;20699;-71
2023/11/27 07:54:56;;;;;;;23.33;11.75;;;;;;;4.68;100.00;99919.47;6083321;19;20010;-71
2023/11/27 07:57:01;;;;;;;20.50;9.70;;;;;;;4.68;100.00;99909.91;6071210;19;20079;-72
2023/11/27 07:59:13;;;;;;;18.45;10.60;;;;;;;4.67;100.00;99910.81;6081700;19;20011;-72
2023/11/27 08:01:18;;;;;;;20.98;10.65;;;;;;;4.66;100.00;99910.84;6083747;19;20014;-71
2023/11/27 08:03:23;;;;;;;17.52;10.98;;;;;;;4.64;100.00;99910.91;6087220;19;20078;-71
2023/11/27 08:05:29;;;;;;;25.75;13.32;;;;;;;4.69;100.00;99908.19;6085448;19;20535;-71
2023/11/27 08:07:34;;;;;;;22.02;11.77;;;;;;;4.73;100.00;99910.63;6085773;19;20011;-71
2023/11/27 08:09:40;;;;;;;26.13;11.85;;;;;;;4.71;100.00;99901.16;6083464;19;20015;-71
2023/11/27 08:11:44;;;;;;;24.90;11.57;;;;;;;4.73;100.00;99897.59;6085876;19;20027;-72
2023/11/27 08:13:47;;;;;;;20.30;11.38;;;;;;;4.77;100.00;99894.03;6082341;19;20090;-70
2023/11/27 08:15:55;;;;;;;19.85;10.40;;;;;;;4.81;100.00;99895.59;6084308;19;20033;-72
2023/11/27 08:18:02;;;;;;;24.48;11.98;;;;;;;4.91;100.00;99887.50;6083480;19;20099;-69
2023/11/27 08:20:08;;;;;;;27.90;12.38;;;;;;;4.84;100.00;99892.94;6083012;19;20015;-72
2023/11/27 08:22:13;;;;;;;21.25;12.18;;;;;;;4.88;100.00;99887.63;6086645;19;20006;-71
2023/11/27 08:24:18;;;;;;;20.88;9.82;;;;;;;4.87;100.00;99889.38;6086267;19;20051;-70
2023/11/27 08:26:23;;;;;;;18.73;9.63;;;;;;;4.93;100.00;99883.13;6083886;19;20042;-70
2023/11/27 08:28:29;;;;;;;20.15;9.57;;;;;;;4.91;100.00;99880.53;6086653;19;20042;-71
2023/11/27 08:30:35;;;;;;;16.80;9.35;;;;;;;4.96;100.00;99876.03;6084033;19;20195;-71
2023/11/27 08:32:43;;;;;;;24.33;11.02;;;;;;;5.01;100.00;99870.69;6085691;19;20446;-71
2023/11/27 08:34:48;;;;;;;19.33;9.70;;;;;;;5.03;100.00;99859.31;6085630;19;20275;-71
2023/11/27 08:36:53;;;;;;;18.27;10.27;;;;;;;5.05;100.00;99852.31;6082319;19;20346;-72
2023/11/27 08:38:57;;;;;;;20.33;10.00;;;;;;;5.10;100.00;99846.09;6086283;19;20007;-71
2023/11/27 08:41:02;;;;;;;16.30;10.18;;;;;;;5.12;100.00;99847.75;6081158;19;20431;-72
2023/11/27 08:43:07;;;;;;;17.70;9.25;;;;;;;5.07;100.00;99844.44;6084257;19;20762;-72
2023/11/27 08:45:16;;;;;;;18.73;10.88;;;;;;;5.17;100.00;99842.38;6086067;19;20014;-72
2023/11/27 08:47:21;;;;;;;17.27;9.80;;;;;;;5.13;100.00;99839.00;6080861;19;20023;-72
2023/11/27 08:49:29;;;;;;;19.05;11.05;;;;;;;5.17;100.00;99845.00;6084527;19;20002;-72
2023/11/27 08:51:31;;;;;;;20.13;10.00;;;;;;;5.17;100.00;99834.56;6083751;19;20032;-72
2023/11/27 08:53:36;;;;;;;18.67;9.48;;;;;;;5.11;100.00;99826.94;6084353;19;20013;-72
2023/11/27 08:55:41;;;;;;;21.05;10.52;;;;;;;5.16;100.00;99820.69;6083643;19;20011;-71
2023/11/27 08:57:43;;;;;;;15.20;8.65;;;;;;;5.15;100.00;99824.19;6084904;19;20486;-71
2023/11/27 08:59:48;;;;;;;17.30;8.02;;;;;;;5.25;100.00;99817.75;6075689;19;20775;-71
2023/11/27 09:01:53;;;;;;;17.58;8.30;;;;;;;5.25;100.00;99815.16;6082717;19;20674;-71
2023/11/27 09:03:58;;;;;;;18.30;10.02;;;;;;;5.27;100.00;99802.09;6081838;19;20018;-71
2023/11/27 09:06:09;;;;;;;19.40;9.43;;;;;;;5.27;100.00;99802.94;6084825;19;20019;-71
2023/11/27 09:08:15;;;;;;;15.75;8.63;;;;;;;5.33;100.00;99799.25;6082131;19;20106;-71
2023/11/27 09:10:20;;;;;;;14.15;8.88;;;;;;;5.36;100.00;99793.09;6084750;19;20597;-71
2023/11/27 09:12:25;;;;;;;13.25;7.15;;;;;;;5.38;100.00;99791.28;6087390;19;20009;-72
2023/11/27 09:14:30;;;;;;;17.45;8.45;;;;;;;5.43;100.00;99784.16;6086219;19;20017;-71
2023/11/27 09:16:36;;;;;;;14.27;7.55;;;;;;;5.49;100.00;99783.94;6085502;19;20097;-75
2023/11/27 09:18:41;;;;;;;17.17;8.20;;;;;;;5.52;100.00;99775.16;6085437;19;20015;-73
2023/11/27 09:20:46;;;;;;;14.02;7.78;;;;;;;5.54;100.00;99773.34;6083129;19;20038;-73
2023/11/27 09:22:56;;;;;;;13.77;7.30;;;;;;;5.55;100.00;99768.06;6084572;19;20006;-72
2023/11/27 09:25:01;;;;;;;16.75;7.43;;;;;;;5.58;100.00;99762.75;6088042;19;20560;-71
2023/11/27 09:27:04;;;;;;;12.38;6.97;;;;;;;5.58;100.00;99765.38;6088293;19;20017;-71
2023/11/27 09:29:09;;;;;;;16.73;7.72;;;;;;;5.60;100.00;99766.13;6088104;19;20027;-71
2023/11/27 09:31:14;;;;;;;16.42;7.75;;;;;;;5.68;100.00;99761.47;6081704;19;20002;-71
2023/11/27 09:33:19;;;;;;;16.17;8.50;;;;;;;5.62;100.00;99759.09;6087633;19;20008;-71
2023/11/27 09:35:25;;;;;;;14.98;6.90;;;;;;;5.66;100.00;99752.88;6084929;19;20631;-72